sensor_id;sensor_type;location;lat;lon;timestamp;P1;durP1;ratioP1;P2;durP2;ratioP2
23782;SDS011;12071;50.850;4.446;2023-07-22T00:00:40;11.82;;;8.70;;
23782;SDS011;12071;50.850;4.446;2023-07-22T00:03:06;13.40;;;9.10;;
23782;SDS011;12071;50.850;4.446;2023-07-22T00:05:31;13.57;;;8.75;;
23782;SDS011;12071;50.850;4.446;2023-07-22T00:07:57;11.57;;;8.02;;
23782;SDS011;12071;50.850;4.446;2023-07-22T00:10:22;11.98;;;8.15;;
23782;SDS011;12071;50.850;4.446;2023-07-22T00:12:48;12.75;;;8.52;;
23782;SDS011;12071;50.850;4.446;2023-07-22T00:15:14;12.02;;;8.27;;
23782;SDS011;12071;50.850;4.446;2023-07-22T00:17:40;10.98;;;8.43;;
23782;SDS011;12071;50.850;4.446;2023-07-22T00:20:06;15.43;;;9.23;;
23782;SDS011;12071;50.850;4.446;2023-07-22T00:22:35;12.13;;;8.82;;
23782;SDS011;12071;50.850;4.446;2023-07-22T00:25:02;17.20;;;9.13;;
23782;SDS011;12071;50.850;4.446;2023-07-22T00:27:28;11.73;;;8.50;;
23782;SDS011;12071;50.850;4.446;2023-07-22T00:29:53;13.20;;;8.88;;
23782;SDS011;12071;50.850;4.446;2023-07-22T00:32:19;11.50;;;8.77;;
23782;SDS011;12071;50.850;4.446;2023-07-22T00:34:44;13.60;;;8.82;;
23782;SDS011;12071;50.850;4.446;2023-07-22T00:37:10;18.85;;;9.30;;
23782;SDS011;12071;50.850;4.446;2023-07-22T00:39:36;10.52;;;7.78;;
23782;SDS011;12071;50.850;4.446;2023-07-22T00:42:01;13.82;;;9.02;;
23782;SDS011;12071;50.850;4.446;2023-07-22T00:44:27;13.40;;;9.15;;
23782;SDS011;12071;50.850;4.446;2023-07-22T00:46:56;12.70;;;8.27;;
23782;SDS011;12071;50.850;4.446;2023-07-22T00:49:23;12.70;;;8.32;;
23782;SDS011;12071;50.850;4.446;2023-07-22T00:51:51;11.55;;;8.98;;
23782;SDS011;12071;50.850;4.446;2023-07-22T00:54:16;12.32;;;8.82;;
23782;SDS011;12071;50.850;4.446;2023-07-22T00:56:42;13.23;;;8.82;;
23782;SDS011;12071;50.850;4.446;2023-07-22T00:59:09;12.27;;;8.82;;
23782;SDS011;12071;50.850;4.446;2023-07-22T01:01:34;17.00;;;9.20;;
23782;SDS011;12071;50.850;4.446;2023-07-22T01:04:00;19.20;;;9.23;;
23782;SDS011;12071;50.850;4.446;2023-07-22T01:06:26;15.70;;;9.07;;
23782;SDS011;12071;50.850;4.446;2023-07-22T01:08:56;12.25;;;8.70;;
23782;SDS011;12071;50.850;4.446;2023-07-22T01:11:22;16.48;;;9.60;;
23782;SDS011;12071;50.850;4.446;2023-07-22T01:13:49;16.02;;;9.23;;
23782;SDS011;12071;50.850;4.446;2023-07-22T01:16:14;18.17;;;8.32;;
23782;SDS011;12071;50.850;4.446;2023-07-22T01:18:40;11.43;;;8.63;;
23782;SDS011;12071;50.850;4.446;2023-07-22T01:21:07;13.57;;;8.93;;
23782;SDS011;12071;50.850;4.446;2023-07-22T01:23:34;14.07;;;9.23;;
23782;SDS011;12071;50.850;4.446;2023-07-22T01:26:01;17.70;;;9.82;;
23782;SDS011;12071;50.850;4.446;2023-07-22T01:28:27;12.95;;;8.93;;
23782;SDS011;12071;50.850;4.446;2023-07-22T01:30:53;14.45;;;8.65;;
23782;SDS011;12071;50.850;4.446;2023-07-22T01:33:19;14.07;;;9.00;;
23782;SDS011;12071;50.850;4.446;2023-07-22T01:35:45;18.92;;;9.95;;
23782;SDS011;12071;50.850;4.446;2023-07-22T01:38:11;13.55;;;9.20;;
23782;SDS011;12071;50.850;4.446;2023-07-22T01:40:36;13.45;;;9.15;;
23782;SDS011;12071;50.850;4.446;2023-07-22T01:43:03;16.15;;;9.55;;
23782;SDS011;12071;50.850;4.446;2023-07-22T01:45:28;15.50;;;9.23;;
23782;SDS011;12071;50.850;4.446;2023-07-22T01:47:54;12.90;;;9.52;;
23782;SDS011;12071;50.850;4.446;2023-07-22T01:50:20;15.77;;;10.18;;
23782;SDS011;12071;50.850;4.446;2023-07-22T01:52:45;15.13;;;9.57;;
23782;SDS011;12071;50.850;4.446;2023-07-22T01:55:13;13.00;;;8.93;;
23782;SDS011;12071;50.850;4.446;2023-07-22T01:57:39;16.33;;;9.52;;
23782;SDS011;12071;50.850;4.446;2023-07-22T02:00:05;15.05;;;9.90;;
23782;SDS011;12071;50.850;4.446;2023-07-22T02:02:33;13.85;;;9.30;;
23782;SDS011;12071;50.850;4.446;2023-07-22T02:04:59;17.70;;;10.23;;
23782;SDS011;12071;50.850;4.446;2023-07-22T02:07:25;18.88;;;10.27;;
23782;SDS011;12071;50.850;4.446;2023-07-22T02:09:51;17.77;;;10.10;;
23782;SDS011;12071;50.850;4.446;2023-07-22T02:12:17;18.05;;;9.80;;
23782;SDS011;12071;50.850;4.446;2023-07-22T02:14:43;17.30;;;10.10;;
23782;SDS011;12071;50.850;4.446;2023-07-22T02:17:08;17.83;;;9.93;;
23782;SDS011;12071;50.850;4.446;2023-07-22T02:19:35;16.30;;;9.85;;
23782;SDS011;12071;50.850;4.446;2023-07-22T02:22:02;16.77;;;10.15;;
23782;SDS011;12071;50.850;4.446;2023-07-22T02:24:29;17.50;;;9.93;;
23782;SDS011;12071;50.850;4.446;2023-07-22T02:26:55;16.02;;;10.77;;
23782;SDS011;12071;50.850;4.446;2023-07-22T02:29:21;17.13;;;9.98;;
23782;SDS011;12071;50.850;4.446;2023-07-22T02:31:47;16.15;;;9.90;;
23782;SDS011;12071;50.850;4.446;2023-07-22T02:34:12;18.00;;;10.57;;
23782;SDS011;12071;50.850;4.446;2023-07-22T02:36:38;16.98;;;10.73;;
23782;SDS011;12071;50.850;4.446;2023-07-22T02:39:03;17.63;;;10.25;;
23782;SDS011;12071;50.850;4.446;2023-07-22T02:41:29;19.10;;;10.63;;
23782;SDS011;12071;50.850;4.446;2023-07-22T02:43:55;18.02;;;10.38;;
23782;SDS011;12071;50.850;4.446;2023-07-22T02:46:20;18.75;;;10.43;;
23782;SDS011;12071;50.850;4.446;2023-07-22T02:48:46;20.55;;;10.43;;
23782;SDS011;12071;50.850;4.446;2023-07-22T02:51:12;18.00;;;10.75;;
23782;SDS011;12071;50.850;4.446;2023-07-22T02:53:38;22.33;;;11.27;;
23782;SDS011;12071;50.850;4.446;2023-07-22T02:56:04;25.40;;;12.00;;
23782;SDS011;12071;50.850;4.446;2023-07-22T02:58:32;17.08;;;11.75;;
23782;SDS011;12071;50.850;4.446;2023-07-22T03:00:58;23.85;;;12.20;;
23782;SDS011;12071;50.850;4.446;2023-07-22T03:03:24;21.55;;;11.60;;
23782;SDS011;12071;50.850;4.446;2023-07-22T03:05:49;21.83;;;12.10;;
23782;SDS011;12071;50.850;4.446;2023-07-22T03:08:16;22.90;;;11.85;;
23782;SDS011;12071;50.850;4.446;2023-07-22T03:10:42;20.20;;;11.35;;
23782;SDS011;12071;50.850;4.446;2023-07-22T03:13:13;20.93;;;11.77;;
23782;SDS011;12071;50.850;4.446;2023-07-22T03:15:42;19.80;;;12.07;;
23782;SDS011;12071;50.850;4.446;2023-07-22T03:18:08;21.40;;;12.43;;
23782;SDS011;12071;50.850;4.446;2023-07-22T03:20:35;21.58;;;13.02;;
23782;SDS011;12071;50.850;4.446;2023-07-22T03:23:01;21.52;;;12.93;;
23782;SDS011;12071;50.850;4.446;2023-07-22T03:25:27;17.70;;;12.63;;
23782;SDS011;12071;50.850;4.446;2023-07-22T03:27:53;23.00;;;13.43;;
23782;SDS011;12071;50.850;4.446;2023-07-22T03:30:20;22.48;;;13.30;;
23782;SDS011;12071;50.850;4.446;2023-07-22T03:32:47;27.42;;;12.68;;
23782;SDS011;12071;50.850;4.446;2023-07-22T03:35:15;23.92;;;12.65;;
23782;SDS011;12071;50.850;4.446;2023-07-22T03:37:41;23.02;;;13.13;;
23782;SDS011;12071;50.850;4.446;2023-07-22T03:40:08;23.08;;;12.85;;
23782;SDS011;12071;50.850;4.446;2023-07-22T03:42:48;26.23;;;13.40;;
23782;SDS011;12071;50.850;4.446;2023-07-22T03:45:15;23.40;;;12.43;;
23782;SDS011;12071;50.850;4.446;2023-07-22T03:47:43;23.98;;;13.27;;
23782;SDS011;12071;50.850;4.446;2023-07-22T03:50:10;25.00;;;12.63;;
23782;SDS011;12071;50.850;4.446;2023-07-22T03:52:36;19.83;;;12.18;;
23782;SDS011;12071;50.850;4.446;2023-07-22T03:55:02;21.50;;;12.77;;
23782;SDS011;12071;50.850;4.446;2023-07-22T03:57:30;24.80;;;13.75;;
23782;SDS011;12071;50.850;4.446;2023-07-22T03:59:56;23.30;;;12.90;;
23782;SDS011;12071;50.850;4.446;2023-07-22T04:02:22;23.92;;;12.50;;
23782;SDS011;12071;50.850;4.446;2023-07-22T04:04:48;22.70;;;13.38;;
23782;SDS011;12071;50.850;4.446;2023-07-22T04:07:15;20.88;;;12.25;;
23782;SDS011;12071;50.850;4.446;2023-07-22T04:09:40;25.17;;;13.23;;
23782;SDS011;12071;50.850;4.446;2023-07-22T04:12:06;22.13;;;12.55;;
23782;SDS011;12071;50.850;4.446;2023-07-22T04:14:32;25.65;;;12.88;;
23782;SDS011;12071;50.850;4.446;2023-07-22T04:16:58;20.40;;;11.63;;
23782;SDS011;12071;50.850;4.446;2023-07-22T04:19:24;22.50;;;12.43;;
23782;SDS011;12071;50.850;4.446;2023-07-22T04:21:49;25.95;;;12.68;;
23782;SDS011;12071;50.850;4.446;2023-07-22T04:24:15;20.38;;;11.77;;
23782;SDS011;12071;50.850;4.446;2023-07-22T04:26:44;23.20;;;12.63;;
23782;SDS011;12071;50.850;4.446;2023-07-22T04:29:10;23.67;;;12.50;;
23782;SDS011;12071;50.850;4.446;2023-07-22T04:31:37;20.05;;;11.50;;
23782;SDS011;12071;50.850;4.446;2023-07-22T04:34:03;23.50;;;12.18;;
23782;SDS011;12071;50.850;4.446;2023-07-22T04:36:28;18.05;;;11.65;;
23782;SDS011;12071;50.850;4.446;2023-07-22T04:38:54;21.58;;;12.13;;
23782;SDS011;12071;50.850;4.446;2023-07-22T04:41:19;25.35;;;12.70;;
23782;SDS011;12071;50.850;4.446;2023-07-22T04:43:46;25.50;;;12.27;;
23782;SDS011;12071;50.850;4.446;2023-07-22T04:46:12;25.15;;;12.73;;
23782;SDS011;12071;50.850;4.446;2023-07-22T04:48:38;21.73;;;12.55;;
23782;SDS011;12071;50.850;4.446;2023-07-22T04:51:03;19.85;;;11.65;;
23782;SDS011;12071;50.850;4.446;2023-07-22T04:53:29;23.00;;;12.57;;
23782;SDS011;12071;50.850;4.446;2023-07-22T04:55:54;20.48;;;12.23;;
23782;SDS011;12071;50.850;4.446;2023-07-22T04:58:20;22.40;;;11.80;;
23782;SDS011;12071;50.850;4.446;2023-07-22T05:00:46;25.15;;;11.77;;
23782;SDS011;12071;50.850;4.446;2023-07-22T05:03:13;19.38;;;10.93;;
23782;SDS011;12071;50.850;4.446;2023-07-22T05:05:39;27.73;;;11.70;;
23782;SDS011;12071;50.850;4.446;2023-07-22T05:08:05;23.40;;;11.38;;
23782;SDS011;12071;50.850;4.446;2023-07-22T05:10:32;19.98;;;11.00;;
23782;SDS011;12071;50.850;4.446;2023-07-22T05:12:58;25.20;;;11.40;;
23782;SDS011;12071;50.850;4.446;2023-07-22T05:15:23;18.42;;;11.05;;
23782;SDS011;12071;50.850;4.446;2023-07-22T05:17:49;22.60;;;10.77;;
23782;SDS011;12071;50.850;4.446;2023-07-22T05:20:15;19.70;;;9.50;;
23782;SDS011;12071;50.850;4.446;2023-07-22T05:22:40;20.65;;;11.38;;
23782;SDS011;12071;50.850;4.446;2023-07-22T05:25:07;22.48;;;10.68;;
23782;SDS011;12071;50.850;4.446;2023-07-22T05:27:33;20.40;;;9.77;;
23782;SDS011;12071;50.850;4.446;2023-07-22T05:29:58;22.17;;;10.60;;
23782;SDS011;12071;50.850;4.446;2023-07-22T05:32:24;28.30;;;9.93;;
23782;SDS011;12071;50.850;4.446;2023-07-22T05:34:50;18.85;;;9.65;;
23782;SDS011;12071;50.850;4.446;2023-07-22T05:37:16;23.15;;;9.95;;
23782;SDS011;12071;50.850;4.446;2023-07-22T05:39:41;19.58;;;10.38;;
23782;SDS011;12071;50.850;4.446;2023-07-22T05:42:07;20.55;;;9.35;;
23782;SDS011;12071;50.850;4.446;2023-07-22T05:44:32;21.63;;;9.45;;
23782;SDS011;12071;50.850;4.446;2023-07-22T05:46:59;18.58;;;8.88;;
23782;SDS011;12071;50.850;4.446;2023-07-22T05:49:24;17.67;;;8.77;;
23782;SDS011;12071;50.850;4.446;2023-07-22T05:51:50;16.35;;;9.05;;
23782;SDS011;12071;50.850;4.446;2023-07-22T05:54:15;15.43;;;8.52;;
23782;SDS011;12071;50.850;4.446;2023-07-22T05:56:42;17.13;;;9.05;;
23782;SDS011;12071;50.850;4.446;2023-07-22T05:59:08;19.83;;;8.60;;
23782;SDS011;12071;50.850;4.446;2023-07-22T06:01:33;17.80;;;8.13;;
23782;SDS011;12071;50.850;4.446;2023-07-22T06:03:59;18.13;;;8.32;;
23782;SDS011;12071;50.850;4.446;2023-07-22T06:06:25;14.32;;;7.32;;
23782;SDS011;12071;50.850;4.446;2023-07-22T06:08:50;19.33;;;7.20;;
23782;SDS011;12071;50.850;4.446;2023-07-22T06:11:16;16.38;;;7.68;;
23782;SDS011;12071;50.850;4.446;2023-07-22T06:13:42;19.48;;;7.55;;
23782;SDS011;12071;50.850;4.446;2023-07-22T06:16:08;14.68;;;7.07;;
23782;SDS011;12071;50.850;4.446;2023-07-22T06:18:33;20.50;;;6.93;;
23782;SDS011;12071;50.850;4.446;2023-07-22T06:20:59;14.65;;;7.05;;
23782;SDS011;12071;50.850;4.446;2023-07-22T06:23:24;13.18;;;6.57;;
23782;SDS011;12071;50.850;4.446;2023-07-22T06:25:50;16.95;;;6.90;;
23782;SDS011;12071;50.850;4.446;2023-07-22T06:28:15;14.75;;;6.95;;
23782;SDS011;12071;50.850;4.446;2023-07-22T06:30:41;11.32;;;6.18;;
23782;SDS011;12071;50.850;4.446;2023-07-22T06:33:07;20.42;;;8.30;;
23782;SDS011;12071;50.850;4.446;2023-07-22T06:35:32;13.82;;;7.18;;
23782;SDS011;12071;50.850;4.446;2023-07-22T06:37:58;15.82;;;6.30;;
23782;SDS011;12071;50.850;4.446;2023-07-22T06:40:24;16.63;;;7.03;;
23782;SDS011;12071;50.850;4.446;2023-07-22T06:42:50;13.07;;;6.43;;
23782;SDS011;12071;50.850;4.446;2023-07-22T06:45:15;15.90;;;6.32;;
23782;SDS011;12071;50.850;4.446;2023-07-22T06:47:41;14.45;;;6.20;;
23782;SDS011;12071;50.850;4.446;2023-07-22T06:50:07;12.27;;;6.63;;
23782;SDS011;12071;50.850;4.446;2023-07-22T06:52:33;15.10;;;7.57;;
23782;SDS011;12071;50.850;4.446;2023-07-22T06:54:58;16.15;;;7.35;;
23782;SDS011;12071;50.850;4.446;2023-07-22T06:57:24;14.05;;;6.60;;
23782;SDS011;12071;50.850;4.446;2023-07-22T06:59:51;12.45;;;6.57;;
23782;SDS011;12071;50.850;4.446;2023-07-22T07:02:19;15.52;;;6.30;;
23782;SDS011;12071;50.850;4.446;2023-07-22T07:04:46;14.65;;;6.85;;
23782;SDS011;12071;50.850;4.446;2023-07-22T07:07:12;13.30;;;6.57;;
23782;SDS011;12071;50.850;4.446;2023-07-22T07:09:38;13.57;;;6.72;;
23782;SDS011;12071;50.850;4.446;2023-07-22T07:12:04;16.83;;;6.95;;
23782;SDS011;12071;50.850;4.446;2023-07-22T07:14:30;12.93;;;6.57;;
23782;SDS011;12071;50.850;4.446;2023-07-22T07:16:57;15.20;;;6.57;;
23782;SDS011;12071;50.850;4.446;2023-07-22T07:19:22;15.20;;;7.00;;
23782;SDS011;12071;50.850;4.446;2023-07-22T07:21:48;14.75;;;6.90;;
23782;SDS011;12071;50.850;4.446;2023-07-22T07:24:15;11.50;;;5.53;;
23782;SDS011;12071;50.850;4.446;2023-07-22T07:26:41;8.50;;;5.93;;
23782;SDS011;12071;50.850;4.446;2023-07-22T07:29:06;8.90;;;4.97;;
23782;SDS011;12071;50.850;4.446;2023-07-22T07:31:32;13.60;;;6.18;;
23782;SDS011;12071;50.850;4.446;2023-07-22T07:33:58;11.73;;;5.70;;
23782;SDS011;12071;50.850;4.446;2023-07-22T07:36:23;13.48;;;5.85;;
23782;SDS011;12071;50.850;4.446;2023-07-22T07:38:49;9.82;;;5.55;;
23782;SDS011;12071;50.850;4.446;2023-07-22T07:41:14;14.40;;;5.30;;
23782;SDS011;12071;50.850;4.446;2023-07-22T07:43:40;16.08;;;6.50;;
23782;SDS011;12071;50.850;4.446;2023-07-22T07:46:23;11.02;;;5.05;;
23782;SDS011;12071;50.850;4.446;2023-07-22T07:48:53;10.32;;;5.40;;
23782;SDS011;12071;50.850;4.446;2023-07-22T07:51:21;13.00;;;5.40;;
23782;SDS011;12071;50.850;4.446;2023-07-22T07:53:49;12.45;;;4.82;;
23782;SDS011;12071;50.850;4.446;2023-07-22T07:56:16;15.80;;;5.78;;
23782;SDS011;12071;50.850;4.446;2023-07-22T07:58:43;12.18;;;5.70;;
23782;SDS011;12071;50.850;4.446;2023-07-22T08:01:10;10.00;;;5.03;;
23782;SDS011;12071;50.850;4.446;2023-07-22T08:03:37;12.45;;;5.07;;
23782;SDS011;12071;50.850;4.446;2023-07-22T08:06:03;12.43;;;4.95;;
23782;SDS011;12071;50.850;4.446;2023-07-22T08:08:28;11.13;;;4.95;;
23782;SDS011;12071;50.850;4.446;2023-07-22T08:13:35;7.97;;;4.07;;
23782;SDS011;12071;50.850;4.446;2023-07-22T08:16:04;11.50;;;3.90;;
23782;SDS011;12071;50.850;4.446;2023-07-22T08:18:31;10.88;;;4.85;;
23782;SDS011;12071;50.850;4.446;2023-07-22T08:20:57;10.32;;;4.65;;
23782;SDS011;12071;50.850;4.446;2023-07-22T08:23:23;10.07;;;4.38;;
23782;SDS011;12071;50.850;4.446;2023-07-22T08:25:49;11.07;;;4.07;;
23782;SDS011;12071;50.850;4.446;2023-07-22T08:28:15;11.38;;;4.68;;
23782;SDS011;12071;50.850;4.446;2023-07-22T08:30:41;14.15;;;4.70;;
23782;SDS011;12071;50.850;4.446;2023-07-22T08:33:08;8.30;;;4.07;;
23782;SDS011;12071;50.850;4.446;2023-07-22T08:35:34;10.48;;;4.20;;
23782;SDS011;12071;50.850;4.446;2023-07-22T08:38:01;13.50;;;4.15;;
23782;SDS011;12071;50.850;4.446;2023-07-22T08:40:27;8.60;;;3.40;;
23782;SDS011;12071;50.850;4.446;2023-07-22T08:43:00;7.72;;;3.50;;
23782;SDS011;12071;50.850;4.446;2023-07-22T08:45:28;9.30;;;3.90;;
23782;SDS011;12071;50.850;4.446;2023-07-22T08:47:57;7.38;;;3.35;;
23782;SDS011;12071;50.850;4.446;2023-07-22T08:50:24;6.40;;;3.63;;
23782;SDS011;12071;50.850;4.446;2023-07-22T08:52:54;8.38;;;3.47;;
23782;SDS011;12071;50.850;4.446;2023-07-22T08:55:20;8.00;;;3.50;;
23782;SDS011;12071;50.850;4.446;2023-07-22T08:57:46;8.15;;;3.45;;
23782;SDS011;12071;50.850;4.446;2023-07-22T09:00:14;7.07;;;3.60;;
23782;SDS011;12071;50.850;4.446;2023-07-22T09:02:43;8.85;;;3.63;;
23782;SDS011;12071;50.850;4.446;2023-07-22T09:05:11;5.90;;;3.30;;
23782;SDS011;12071;50.850;4.446;2023-07-22T09:07:37;7.72;;;2.90;;
23782;SDS011;12071;50.850;4.446;2023-07-22T09:10:06;8.05;;;2.85;;
23782;SDS011;12071;50.850;4.446;2023-07-22T09:12:34;6.75;;;2.83;;
23782;SDS011;12071;50.850;4.446;2023-07-22T09:15:14;9.20;;;3.05;;
23782;SDS011;12071;50.850;4.446;2023-07-22T09:17:40;6.35;;;2.63;;
23782;SDS011;12071;50.850;4.446;2023-07-22T09:20:06;4.90;;;3.08;;
23782;SDS011;12071;50.850;4.446;2023-07-22T09:22:33;5.55;;;2.25;;
23782;SDS011;12071;50.850;4.446;2023-07-22T09:25:15;5.60;;;2.15;;
23782;SDS011;12071;50.850;4.446;2023-07-22T09:27:45;3.50;;;2.30;;
23782;SDS011;12071;50.850;4.446;2023-07-22T09:32:59;5.50;;;1.90;;
23782;SDS011;12071;50.850;4.446;2023-07-22T09:35:27;6.47;;;2.20;;
23782;SDS011;12071;50.850;4.446;2023-07-22T09:38:12;3.53;;;1.70;;
23782;SDS011;12071;50.850;4.446;2023-07-22T09:40:40;4.07;;;1.80;;
23782;SDS011;12071;50.850;4.446;2023-07-22T09:43:08;3.72;;;2.00;;
23782;SDS011;12071;50.850;4.446;2023-07-22T09:45:35;5.28;;;1.60;;
23782;SDS011;12071;50.850;4.446;2023-07-22T09:48:02;3.17;;;1.80;;
23782;SDS011;12071;50.850;4.446;2023-07-22T09:50:29;5.57;;;1.60;;
23782;SDS011;12071;50.850;4.446;2023-07-22T09:52:57;4.38;;;1.70;;
23782;SDS011;12071;50.850;4.446;2023-07-22T09:55:25;2.90;;;1.52;;
23782;SDS011;12071;50.850;4.446;2023-07-22T09:57:54;3.55;;;1.95;;
23782;SDS011;12071;50.850;4.446;2023-07-22T10:00:24;5.45;;;2.10;;
23782;SDS011;12071;50.850;4.446;2023-07-22T10:02:53;3.70;;;1.90;;
23782;SDS011;12071;50.850;4.446;2023-07-22T10:05:23;2.10;;;1.70;;
23782;SDS011;12071;50.850;4.446;2023-07-22T10:07:54;3.20;;;1.60;;
23782;SDS011;12071;50.850;4.446;2023-07-22T10:10:21;5.35;;;1.60;;
23782;SDS011;12071;50.850;4.446;2023-07-22T10:12:50;5.07;;;1.83;;
23782;SDS011;12071;50.850;4.446;2023-07-22T10:15:16;4.28;;;1.70;;
23782;SDS011;12071;50.850;4.446;2023-07-22T10:17:45;4.78;;;1.88;;
23782;SDS011;12071;50.850;4.446;2023-07-22T10:20:12;2.33;;;1.27;;
23782;SDS011;12071;50.850;4.446;2023-07-22T10:22:45;2.22;;;1.20;;
23782;SDS011;12071;50.850;4.446;2023-07-22T10:25:12;4.00;;;1.35;;
23782;SDS011;12071;50.850;4.446;2023-07-22T10:27:42;2.65;;;1.50;;
23782;SDS011;12071;50.850;4.446;2023-07-22T10:30:08;3.35;;;1.55;;
23782;SDS011;12071;50.850;4.446;2023-07-22T10:32:36;2.38;;;1.50;;
23782;SDS011;12071;50.850;4.446;2023-07-22T10:35:10;2.63;;;1.23;;
23782;SDS011;12071;50.850;4.446;2023-07-22T10:37:39;3.70;;;1.45;;
23782;SDS011;12071;50.850;4.446;2023-07-22T10:40:26;3.78;;;1.40;;
23782;SDS011;12071;50.850;4.446;2023-07-22T10:42:58;3.00;;;1.48;;
23782;SDS011;12071;50.850;4.446;2023-07-22T10:45:31;1.83;;;1.35;;
23782;SDS011;12071;50.850;4.446;2023-07-22T10:48:02;3.50;;;1.48;;
23782;SDS011;12071;50.850;4.446;2023-07-22T10:53:06;3.17;;;1.25;;
23782;SDS011;12071;50.850;4.446;2023-07-22T10:55:38;2.60;;;1.40;;
23782;SDS011;12071;50.850;4.446;2023-07-22T10:59:17;2.25;;;1.50;;
23782;SDS011;12071;50.850;4.446;2023-07-22T11:04:08;3.60;;;1.60;;
23782;SDS011;12071;50.850;4.446;2023-07-22T11:06:38;3.67;;;1.42;;
23782;SDS011;12071;50.850;4.446;2023-07-22T11:12:00;3.15;;;1.70;;
23782;SDS011;12071;50.850;4.446;2023-07-22T11:14:31;4.68;;;1.85;;
23782;SDS011;12071;50.850;4.446;2023-07-22T11:17:00;2.63;;;1.63;;
23782;SDS011;12071;50.850;4.446;2023-07-22T11:19:29;4.00;;;1.75;;
23782;SDS011;12071;50.850;4.446;2023-07-22T11:21:55;3.90;;;2.00;;
23782;SDS011;12071;50.850;4.446;2023-07-22T11:24:22;4.40;;;1.92;;
23782;SDS011;12071;50.850;4.446;2023-07-22T11:26:49;3.28;;;1.70;;
23782;SDS011;12071;50.850;4.446;2023-07-22T11:29:16;4.20;;;2.15;;
23782;SDS011;12071;50.850;4.446;2023-07-22T11:31:42;4.80;;;2.10;;
23782;SDS011;12071;50.850;4.446;2023-07-22T11:34:15;2.42;;;1.90;;
23782;SDS011;12071;50.850;4.446;2023-07-22T11:36:42;2.95;;;1.73;;
23782;SDS011;12071;50.850;4.446;2023-07-22T11:39:09;3.08;;;1.95;;
23782;SDS011;12071;50.850;4.446;2023-07-22T11:41:40;4.22;;;1.80;;
23782;SDS011;12071;50.850;4.446;2023-07-22T11:44:06;5.38;;;2.15;;
23782;SDS011;12071;50.850;4.446;2023-07-22T11:46:34;4.65;;;2.20;;
23782;SDS011;12071;50.850;4.446;2023-07-22T11:49:01;3.35;;;1.80;;
23782;SDS011;12071;50.850;4.446;2023-07-22T11:51:27;3.85;;;2.13;;
23782;SDS011;12071;50.850;4.446;2023-07-22T11:53:53;3.50;;;1.95;;
23782;SDS011;12071;50.850;4.446;2023-07-22T11:58:48;3.22;;;1.65;;
23782;SDS011;12071;50.850;4.446;2023-07-22T12:01:15;4.75;;;1.88;;
23782;SDS011;12071;50.850;4.446;2023-07-22T12:03:41;3.78;;;1.60;;
23782;SDS011;12071;50.850;4.446;2023-07-22T12:06:06;3.65;;;1.70;;
23782;SDS011;12071;50.850;4.446;2023-07-22T12:08:33;4.22;;;1.95;;
23782;SDS011;12071;50.850;4.446;2023-07-22T12:10:59;3.92;;;1.90;;
23782;SDS011;12071;50.850;4.446;2023-07-22T12:13:25;5.10;;;1.98;;
23782;SDS011;12071;50.850;4.446;2023-07-22T12:16:00;2.83;;;1.77;;
23782;SDS011;12071;50.850;4.446;2023-07-22T12:18:27;4.45;;;1.88;;
23782;SDS011;12071;50.850;4.446;2023-07-22T12:20:53;5.22;;;2.13;;
23782;SDS011;12071;50.850;4.446;2023-07-22T12:23:19;5.40;;;1.80;;
23782;SDS011;12071;50.850;4.446;2023-07-22T12:25:46;3.50;;;1.80;;
23782;SDS011;12071;50.850;4.446;2023-07-22T12:28:12;3.25;;;1.50;;
23782;SDS011;12071;50.850;4.446;2023-07-22T12:30:37;2.95;;;1.70;;
23782;SDS011;12071;50.850;4.446;2023-07-22T12:33:03;3.35;;;1.95;;
23782;SDS011;12071;50.850;4.446;2023-07-22T12:35:29;3.05;;;1.60;;
23782;SDS011;12071;50.850;4.446;2023-07-22T12:37:54;3.20;;;1.50;;
23782;SDS011;12071;50.850;4.446;2023-07-22T12:40:20;3.72;;;1.80;;
23782;SDS011;12071;50.850;4.446;2023-07-22T12:42:46;3.17;;;1.52;;
23782;SDS011;12071;50.850;4.446;2023-07-22T12:45:12;3.22;;;1.27;;
23782;SDS011;12071;50.850;4.446;2023-07-22T12:47:38;1.90;;;1.02;;
23782;SDS011;12071;50.850;4.446;2023-07-22T12:50:04;2.75;;;1.80;;
23782;SDS011;12071;50.850;4.446;2023-07-22T12:52:32;5.57;;;1.52;;
23782;SDS011;12071;50.850;4.446;2023-07-22T12:54:58;4.07;;;1.83;;
23782;SDS011;12071;50.850;4.446;2023-07-22T12:57:23;4.82;;;1.33;;
23782;SDS011;12071;50.850;4.446;2023-07-22T12:59:49;5.78;;;1.60;;
23782;SDS011;12071;50.850;4.446;2023-07-22T13:02:16;2.72;;;1.60;;
23782;SDS011;12071;50.850;4.446;2023-07-22T13:04:42;2.42;;;1.50;;
23782;SDS011;12071;50.850;4.446;2023-07-22T13:07:09;3.83;;;1.63;;
23782;SDS011;12071;50.850;4.446;2023-07-22T13:09:34;2.75;;;1.30;;
23782;SDS011;12071;50.850;4.446;2023-07-22T13:12:03;2.13;;;1.15;;
23782;SDS011;12071;50.850;4.446;2023-07-22T13:14:29;5.00;;;1.60;;
23782;SDS011;12071;50.850;4.446;2023-07-22T13:16:54;1.63;;;1.30;;
23782;SDS011;12071;50.850;4.446;2023-07-22T13:19:20;3.38;;;1.50;;
23782;SDS011;12071;50.850;4.446;2023-07-22T13:21:45;2.95;;;1.33;;
23782;SDS011;12071;50.850;4.446;2023-07-22T13:24:11;1.70;;;1.45;;
23782;SDS011;12071;50.850;4.446;2023-07-22T13:26:36;3.20;;;1.40;;
23782;SDS011;12071;50.850;4.446;2023-07-22T13:29:02;2.05;;;1.35;;
23782;SDS011;12071;50.850;4.446;2023-07-22T13:31:28;2.17;;;1.55;;
23782;SDS011;12071;50.850;4.446;2023-07-22T13:33:53;6.10;;;1.60;;
23782;SDS011;12071;50.850;4.446;2023-07-22T13:36:19;6.13;;;1.50;;
23782;SDS011;12071;50.850;4.446;2023-07-22T13:38:44;3.42;;;1.30;;
23782;SDS011;12071;50.850;4.446;2023-07-22T13:41:10;1.70;;;1.45;;
23782;SDS011;12071;50.850;4.446;2023-07-22T13:43:36;3.33;;;1.38;;
23782;SDS011;12071;50.850;4.446;2023-07-22T13:46:02;3.45;;;1.60;;
23782;SDS011;12071;50.850;4.446;2023-07-22T13:48:28;3.63;;;1.88;;
23782;SDS011;12071;50.850;4.446;2023-07-22T13:50:53;6.45;;;1.70;;
23782;SDS011;12071;50.850;4.446;2023-07-22T13:53:20;3.05;;;1.50;;
23782;SDS011;12071;50.850;4.446;2023-07-22T13:55:46;2.78;;;1.75;;
23782;SDS011;12071;50.850;4.446;2023-07-22T13:58:11;2.38;;;1.55;;
23782;SDS011;12071;50.850;4.446;2023-07-22T14:00:38;4.50;;;1.83;;
23782;SDS011;12071;50.850;4.446;2023-07-22T14:03:04;6.22;;;1.90;;
23782;SDS011;12071;50.850;4.446;2023-07-22T14:05:29;4.35;;;1.65;;
23782;SDS011;12071;50.850;4.446;2023-07-22T14:07:56;2.80;;;1.80;;
23782;SDS011;12071;50.850;4.446;2023-07-22T14:10:21;2.70;;;1.52;;
23782;SDS011;12071;50.850;4.446;2023-07-22T14:12:47;3.85;;;1.55;;
23782;SDS011;12071;50.850;4.446;2023-07-22T14:15:12;2.92;;;1.40;;
23782;SDS011;12071;50.850;4.446;2023-07-22T14:17:38;3.28;;;1.75;;
23782;SDS011;12071;50.850;4.446;2023-07-22T14:20:04;3.60;;;1.70;;
23782;SDS011;12071;50.850;4.446;2023-07-22T14:22:30;4.40;;;1.63;;
23782;SDS011;12071;50.850;4.446;2023-07-22T14:24:56;6.47;;;2.10;;
23782;SDS011;12071;50.850;4.446;2023-07-22T14:27:21;4.75;;;2.08;;
23782;SDS011;12071;50.850;4.446;2023-07-22T14:29:47;6.05;;;1.88;;
23782;SDS011;12071;50.850;4.446;2023-07-22T14:32:12;3.92;;;1.60;;
23782;SDS011;12071;50.850;4.446;2023-07-22T14:34:41;3.15;;;1.50;;
23782;SDS011;12071;50.850;4.446;2023-07-22T14:37:07;2.17;;;1.42;;
23782;SDS011;12071;50.850;4.446;2023-07-22T14:39:32;4.60;;;1.48;;
23782;SDS011;12071;50.850;4.446;2023-07-22T14:41:58;5.88;;;1.50;;
23782;SDS011;12071;50.850;4.446;2023-07-22T14:44:23;5.03;;;1.30;;
23782;SDS011;12071;50.850;4.446;2023-07-22T14:46:49;2.78;;;1.58;;
23782;SDS011;12071;50.850;4.446;2023-07-22T14:49:15;5.88;;;1.60;;
23782;SDS011;12071;50.850;4.446;2023-07-22T14:51:40;3.17;;;1.35;;